SWA807 KFLL-KMCO
Flight info
| Callsign | SWA807 |
|---|---|
| Flight time | 0h 38m |
| Altitude | 22000 |
| Route | FRSBE2 WAPOM MUNGI1 |
| Aircraft | B738/M-SADE2E3GIJ4RWZ/LB1D1 |
Departure
| Time | 2026-05-06 21:32 |
|---|---|
| Airport | Fort Lauderdale Hollywood International Airport (KFLL) |
Arrival
| Time | 2026-05-06 22:11 |
|---|---|
| Airport | Orlando International Airport (KMCO) |
| Time | Latitude | Longitude | Altitude | Speed | Heading |
|---|---|---|---|---|---|
| 2026-05-06 21:11 | 26.07345 | -80.13644 | 15 ft | 0 kts | 104° |
| 2026-05-06 21:22 | 26.07347 | -80.13654 | 15 ft | 4 kts | 104° |
| 2026-05-06 21:22 | 26.07352 | -80.13679 | 15 ft | 4 kts | 107° |
| 2026-05-06 21:22 | 26.07365 | -80.13700 | 18 ft | 4 kts | 156° |
| 2026-05-06 21:22 | 26.07391 | -80.13707 | 16 ft | 4 kts | 177° |
| 2026-05-06 21:23 | 26.07417 | -80.13707 | 15 ft | 4 kts | 179° |
| 2026-05-06 21:23 | 26.07440 | -80.13713 | 17 ft | 4 kts | 126° |
| 2026-05-06 21:23 | 26.07441 | -80.13729 | 15 ft | 4 kts | 36° |
| 2026-05-06 21:23 | 26.07418 | -80.13735 | 16 ft | 4 kts | 360° |
| 2026-05-06 21:24 | 26.07406 | -80.13735 | 17 ft | 0 kts | 360° |
| 2026-05-06 21:25 | 26.07408 | -80.13735 | 17 ft | 1 kts | 0° |
| 2026-05-06 21:26 | 26.07450 | -80.13738 | 15 ft | 10 kts | 343° |
| 2026-05-06 21:26 | 26.07470 | -80.13825 | 15 ft | 14 kts | 270° |
| 2026-05-06 21:26 | 26.07485 | -80.13941 | 15 ft | 15 kts | 272° |
| 2026-05-06 21:26 | 26.07485 | -80.14056 | 15 ft | 15 kts | 270° |
| 2026-05-06 21:27 | 26.07485 | -80.14167 | 15 ft | 14 kts | 270° |
| 2026-05-06 21:27 | 26.07486 | -80.14277 | 15 ft | 16 kts | 270° |
| 2026-05-06 21:27 | 26.07487 | -80.14422 | 15 ft | 21 kts | 270° |
| 2026-05-06 21:27 | 26.07487 | -80.14586 | 15 ft | 21 kts | 270° |
| 2026-05-06 21:28 | 26.07488 | -80.14745 | 15 ft | 20 kts | 270° |
| 2026-05-06 21:28 | 26.07488 | -80.14899 | 15 ft | 20 kts | 270° |
| 2026-05-06 21:28 | 26.07489 | -80.15049 | 15 ft | 19 kts | 270° |
| 2026-05-06 21:28 | 26.07490 | -80.15193 | 15 ft | 18 kts | 270° |
| 2026-05-06 21:29 | 26.07490 | -80.15333 | 15 ft | 18 kts | 270° |
| 2026-05-06 21:29 | 26.07491 | -80.15470 | 15 ft | 19 kts | 270° |
| 2026-05-06 21:29 | 26.07492 | -80.15661 | 15 ft | 27 kts | 270° |
| 2026-05-06 21:29 | 26.07493 | -80.15874 | 15 ft | 27 kts | 270° |
| 2026-05-06 21:30 | 26.07494 | -80.16073 | 15 ft | 25 kts | 270° |
| 2026-05-06 21:30 | 26.07495 | -80.16259 | 15 ft | 23 kts | 270° |
| 2026-05-06 21:30 | 26.07496 | -80.16434 | 15 ft | 22 kts | 270° |
| 2026-05-06 21:30 | 26.07496 | -80.16580 | 15 ft | 12 kts | 271° |
| 2026-05-06 21:31 | 26.07542 | -80.16642 | 15 ft | 12 kts | 353° |
| 2026-05-06 21:31 | 26.07622 | -80.16642 | 16 ft | 11 kts | 0° |
| 2026-05-06 21:31 | 26.07691 | -80.16631 | 17 ft | 9 kts | 43° |
| 2026-05-06 21:31 | 26.07696 | -80.16578 | 17 ft | 7 kts | 89° |
| 2026-05-06 21:32 | 26.07696 | -80.16490 | 18 ft | 32 kts | 91° |
| 2026-05-06 21:32 | 26.07688 | -80.14799 | 255 ft | 160 kts | 92° |
| 2026-05-06 21:32 | 26.07698 | -80.13566 | 1231 ft | 154 kts | 89° |
| 2026-05-06 21:33 | 26.07713 | -80.12375 | 2114 ft | 161 kts | 88° |
| 2026-05-06 21:33 | 26.07746 | -80.11031 | 2534 ft | 187 kts | 89° |
| 2026-05-06 21:33 | 26.07910 | -80.09524 | 2798 ft | 216 kts | 71° |
| 2026-05-06 21:33 | 26.08614 | -80.07956 | 3042 ft | 237 kts | 52° |
| 2026-05-06 21:34 | 26.09938 | -80.06711 | 3202 ft | 266 kts | 26° |
| 2026-05-06 21:34 | 26.11682 | -80.06001 | 4029 ft | 265 kts | 17° |
| 2026-05-06 21:34 | 26.13446 | -80.05355 | 4839 ft | 271 kts | 18° |
| 2026-05-06 21:34 | 26.15270 | -80.04779 | 5562 ft | 277 kts | 4° |
| 2026-05-06 21:35 | 26.17156 | -80.05116 | 6395 ft | 276 kts | 340° |
| 2026-05-06 21:35 | 26.18935 | -80.05889 | 7283 ft | 275 kts | 339° |
| 2026-05-06 21:35 | 26.20737 | -80.06638 | 8099 ft | 278 kts | 338° |
| 2026-05-06 21:35 | 26.22316 | -80.07870 | 8942 ft | 283 kts | 313° |
| 2026-05-06 21:36 | 26.23345 | -80.09771 | 9746 ft | 292 kts | 294° |
| 2026-05-06 21:36 | 26.24094 | -80.11900 | 10440 ft | 302 kts | 293° |
| 2026-05-06 21:36 | 26.24881 | -80.14175 | 10634 ft | 328 kts | 293° |
| 2026-05-06 21:36 | 26.25776 | -80.16606 | 10903 ft | 347 kts | 298° |
| 2026-05-06 21:37 | 26.26987 | -80.18964 | 11473 ft | 353 kts | 305° |
| 2026-05-06 21:37 | 26.28329 | -80.21265 | 12200 ft | 356 kts | 306° |
| 2026-05-06 21:37 | 26.29703 | -80.23568 | 12984 ft | 358 kts | 306° |
| 2026-05-06 21:37 | 26.31078 | -80.25892 | 13747 ft | 361 kts | 306° |
| 2026-05-06 21:38 | 26.32454 | -80.28253 | 14443 ft | 365 kts | 306° |
| 2026-05-06 21:38 | 26.33830 | -80.30641 | 15173 ft | 367 kts | 305° |
| 2026-05-06 21:38 | 26.35203 | -80.33047 | 15917 ft | 369 kts | 304° |
| 2026-05-06 21:38 | 26.36579 | -80.35471 | 16637 ft | 371 kts | 304° |
| 2026-05-06 21:39 | 26.37964 | -80.37915 | 17343 ft | 374 kts | 304° |
| 2026-05-06 21:39 | 26.39356 | -80.40375 | 18029 ft | 377 kts | 304° |
| 2026-05-06 21:39 | 26.40761 | -80.42860 | 18658 ft | 380 kts | 303° |
| 2026-05-06 21:39 | 26.42170 | -80.45354 | 19279 ft | 381 kts | 303° |
| 2026-05-06 21:40 | 26.43581 | -80.47851 | 19911 ft | 381 kts | 303° |
| 2026-05-06 21:40 | 26.44996 | -80.50357 | 20531 ft | 382 kts | 303° |
| 2026-05-06 21:40 | 26.46414 | -80.52868 | 21136 ft | 383 kts | 303° |
| 2026-05-06 21:40 | 26.47424 | -80.54471 | 21599 ft | 381 kts | 311° |
| 2026-05-06 21:41 | 26.49425 | -80.56403 | 21900 ft | 383 kts | 327° |
| 2026-05-06 21:41 | 26.51833 | -80.57663 | 22049 ft | 388 kts | 340° |
| 2026-05-06 21:41 | 26.54449 | -80.58541 | 22062 ft | 397 kts | 342° |
| 2026-05-06 21:41 | 26.57115 | -80.59351 | 22065 ft | 396 kts | 342° |
| 2026-05-06 21:42 | 26.59775 | -80.60144 | 22057 ft | 395 kts | 342° |
| 2026-05-06 21:42 | 26.62426 | -80.60945 | 22056 ft | 394 kts | 342° |
| 2026-05-06 21:42 | 26.65071 | -80.61760 | 22048 ft | 394 kts | 342° |
| 2026-05-06 21:42 | 26.67710 | -80.62586 | 22051 ft | 394 kts | 342° |
| 2026-05-06 21:43 | 26.70350 | -80.63421 | 22050 ft | 394 kts | 341° |
| 2026-05-06 21:43 | 26.72986 | -80.64259 | 22050 ft | 394 kts | 341° |
| 2026-05-06 21:43 | 26.75629 | -80.65101 | 22049 ft | 395 kts | 341° |
| 2026-05-06 21:43 | 26.78272 | -80.65944 | 22048 ft | 395 kts | 341° |
| 2026-05-06 21:44 | 26.80913 | -80.66786 | 22050 ft | 395 kts | 341° |
| 2026-05-06 21:44 | 26.83556 | -80.67630 | 22052 ft | 395 kts | 341° |
| 2026-05-06 21:44 | 26.86200 | -80.68473 | 22052 ft | 395 kts | 341° |
| 2026-05-06 21:44 | 26.88843 | -80.69316 | 22060 ft | 395 kts | 341° |
| 2026-05-06 21:45 | 26.91484 | -80.70161 | 22059 ft | 395 kts | 341° |
| 2026-05-06 21:45 | 26.94105 | -80.71080 | 22053 ft | 394 kts | 339° |
| 2026-05-06 21:45 | 26.96698 | -80.72064 | 22052 ft | 393 kts | 338° |
| 2026-05-06 21:45 | 26.99287 | -80.73068 | 22052 ft | 393 kts | 338° |
| 2026-05-06 21:46 | 27.01872 | -80.74070 | 22048 ft | 393 kts | 338° |
| 2026-05-06 21:46 | 27.04457 | -80.75064 | 22049 ft | 393 kts | 338° |
| 2026-05-06 21:46 | 27.07045 | -80.76053 | 22052 ft | 393 kts | 338° |
| 2026-05-06 21:46 | 27.09635 | -80.77037 | 22050 ft | 393 kts | 339° |
| 2026-05-06 21:47 | 27.12227 | -80.78020 | 22050 ft | 393 kts | 339° |
| 2026-05-06 21:47 | 27.14818 | -80.79002 | 22048 ft | 393 kts | 339° |
| 2026-05-06 21:47 | 27.17410 | -80.79984 | 22053 ft | 393 kts | 338° |
| 2026-05-06 21:47 | 27.20002 | -80.80967 | 22051 ft | 393 kts | 338° |
| 2026-05-06 21:48 | 27.22596 | -80.81951 | 22049 ft | 393 kts | 338° |
| 2026-05-06 21:48 | 27.25186 | -80.82934 | 22045 ft | 393 kts | 338° |
| 2026-05-06 21:48 | 27.27779 | -80.83919 | 22045 ft | 393 kts | 338° |
| 2026-05-06 21:48 | 27.30367 | -80.84902 | 22047 ft | 393 kts | 338° |
| 2026-05-06 21:49 | 27.32963 | -80.85871 | 22044 ft | 393 kts | 340° |
| 2026-05-06 21:49 | 27.35597 | -80.86717 | 22045 ft | 394 kts | 342° |
| 2026-05-06 21:49 | 27.38252 | -80.87495 | 22047 ft | 394 kts | 342° |
| 2026-05-06 21:49 | 27.40912 | -80.88255 | 22049 ft | 394 kts | 342° |
| 2026-05-06 21:50 | 27.43568 | -80.89016 | 22053 ft | 394 kts | 342° |
| 2026-05-06 21:50 | 27.46223 | -80.89786 | 22053 ft | 394 kts | 342° |
| 2026-05-06 21:50 | 27.48877 | -80.90564 | 22055 ft | 394 kts | 342° |
| 2026-05-06 21:50 | 27.51496 | -80.91339 | 22041 ft | 395 kts | 342° |
| 2026-05-06 21:51 | 27.54150 | -80.92128 | 22047 ft | 395 kts | 342° |
| 2026-05-06 21:51 | 27.56787 | -80.92912 | 21805 ft | 387 kts | 342° |
| 2026-05-06 21:51 | 27.59356 | -80.93676 | 21552 ft | 378 kts | 342° |
| 2026-05-06 21:51 | 27.61879 | -80.94429 | 21300 ft | 374 kts | 342° |
| 2026-05-06 21:52 | 27.64386 | -80.95178 | 20938 ft | 372 kts | 342° |
| 2026-05-06 21:52 | 27.66879 | -80.95924 | 20470 ft | 369 kts | 342° |
| 2026-05-06 21:52 | 27.69350 | -80.96663 | 19985 ft | 366 kts | 342° |
| 2026-05-06 21:52 | 27.71808 | -80.97399 | 19467 ft | 365 kts | 343° |
| 2026-05-06 21:53 | 27.74260 | -80.98134 | 18954 ft | 364 kts | 343° |
| 2026-05-06 21:53 | 27.76707 | -80.98867 | 18442 ft | 364 kts | 343° |
| 2026-05-06 21:53 | 27.79152 | -80.99599 | 17869 ft | 363 kts | 343° |
| 2026-05-06 21:53 | 27.81590 | -81.00329 | 17337 ft | 361 kts | 343° |
| 2026-05-06 21:54 | 27.84011 | -81.01055 | 16834 ft | 359 kts | 344° |
| 2026-05-06 21:54 | 27.86417 | -81.01777 | 16332 ft | 356 kts | 344° |
| 2026-05-06 21:54 | 27.88803 | -81.02492 | 15845 ft | 354 kts | 344° |
| 2026-05-06 21:54 | 27.91182 | -81.03206 | 15342 ft | 353 kts | 345° |
| 2026-05-06 21:55 | 27.93543 | -81.03921 | 14868 ft | 350 kts | 343° |
| 2026-05-06 21:55 | 27.95825 | -81.04789 | 14629 ft | 342 kts | 340° |
| 2026-05-06 21:55 | 27.98031 | -81.05745 | 14398 ft | 337 kts | 339° |
| 2026-05-06 21:55 | 28.00219 | -81.06712 | 14178 ft | 340 kts | 339° |
| 2026-05-06 21:56 | 28.02441 | -81.07678 | 13962 ft | 344 kts | 339° |
| 2026-05-06 21:56 | 28.04683 | -81.08637 | 13725 ft | 344 kts | 340° |
| 2026-05-06 21:56 | 28.06918 | -81.09585 | 13469 ft | 342 kts | 340° |
| 2026-05-06 21:56 | 28.09139 | -81.10531 | 13194 ft | 339 kts | 339° |
| 2026-05-06 21:57 | 28.11336 | -81.11492 | 12819 ft | 337 kts | 339° |
| 2026-05-06 21:57 | 28.13512 | -81.12454 | 12433 ft | 333 kts | 339° |
| 2026-05-06 21:57 | 28.15634 | -81.13394 | 12300 ft | 321 kts | 339° |
| 2026-05-06 21:57 | 28.17677 | -81.14297 | 12210 ft | 309 kts | 339° |
| 2026-05-06 21:58 | 28.19640 | -81.15164 | 12136 ft | 295 kts | 339° |
| 2026-05-06 21:58 | 28.21516 | -81.15992 | 11859 ft | 285 kts | 339° |
| 2026-05-06 21:58 | 28.23328 | -81.16791 | 11489 ft | 282 kts | 339° |
| 2026-05-06 21:58 | 28.25152 | -81.17596 | 11007 ft | 281 kts | 339° |
| 2026-05-06 21:59 | 28.26975 | -81.18378 | 10607 ft | 278 kts | 343° |
| 2026-05-06 21:59 | 28.28876 | -81.18652 | 10132 ft | 277 kts | 360° |
| 2026-05-06 21:59 | 28.30810 | -81.18646 | 9567 ft | 278 kts | 0° |
| 2026-05-06 21:59 | 28.32729 | -81.18652 | 9156 ft | 274 kts | 360° |
| 2026-05-06 22:00 | 28.34639 | -81.18673 | 8587 ft | 276 kts | 359° |
| 2026-05-06 22:00 | 28.36517 | -81.18704 | 8434 ft | 264 kts | 359° |
| 2026-05-06 22:00 | 28.38349 | -81.18736 | 8293 ft | 257 kts | 359° |
| 2026-05-06 22:00 | 28.40108 | -81.18762 | 7973 ft | 258 kts | 359° |
| 2026-05-06 22:01 | 28.41874 | -81.18777 | 7720 ft | 250 kts | 359° |
| 2026-05-06 22:01 | 28.43606 | -81.18790 | 7441 ft | 248 kts | 359° |
| 2026-05-06 22:01 | 28.45333 | -81.18802 | 7218 ft | 249 kts | 359° |
| 2026-05-06 22:01 | 28.47067 | -81.18816 | 6980 ft | 249 kts | 359° |
| 2026-05-06 22:02 | 28.48798 | -81.18830 | 6759 ft | 248 kts | 359° |
| 2026-05-06 22:02 | 28.50526 | -81.18844 | 6520 ft | 248 kts | 359° |
| 2026-05-06 22:02 | 28.52249 | -81.18858 | 6284 ft | 248 kts | 359° |
| 2026-05-06 22:02 | 28.53970 | -81.18872 | 6080 ft | 245 kts | 359° |
| 2026-05-06 22:03 | 28.55649 | -81.18909 | 6009 ft | 237 kts | 358° |
| 2026-05-06 22:03 | 28.57279 | -81.18925 | 6018 ft | 233 kts | 359° |
| 2026-05-06 22:03 | 28.58900 | -81.18932 | 6021 ft | 233 kts | 359° |
| 2026-05-06 22:03 | 28.60526 | -81.18937 | 5952 ft | 233 kts | 359° |
| 2026-05-06 22:04 | 28.62144 | -81.18944 | 5715 ft | 233 kts | 359° |
| 2026-05-06 22:04 | 28.63776 | -81.18951 | 5397 ft | 236 kts | 359° |
| 2026-05-06 22:04 | 28.65421 | -81.18975 | 5186 ft | 236 kts | 352° |
| 2026-05-06 22:04 | 28.66885 | -81.19698 | 4931 ft | 232 kts | 313° |
| 2026-05-06 22:05 | 28.67586 | -81.21272 | 4760 ft | 222 kts | 275° |
| 2026-05-06 22:05 | 28.67737 | -81.23006 | 4611 ft | 218 kts | 273° |
| 2026-05-06 22:05 | 28.67870 | -81.24698 | 4459 ft | 211 kts | 273° |
| 2026-05-06 22:05 | 28.67967 | -81.26343 | 4258 ft | 205 kts | 264° |
| 2026-05-06 22:06 | 28.67478 | -81.27788 | 4083 ft | 194 kts | 227° |
| 2026-05-06 22:06 | 28.66363 | -81.28590 | 3931 ft | 189 kts | 199° |
| 2026-05-06 22:06 | 28.65089 | -81.28848 | 3772 ft | 188 kts | 173° |
| 2026-05-06 22:06 | 28.63813 | -81.28622 | 3713 ft | 186 kts | 173° |
| 2026-05-06 22:07 | 28.62504 | -81.28489 | 3496 ft | 192 kts | 177° |
| 2026-05-06 22:07 | 28.61164 | -81.28438 | 3266 ft | 194 kts | 179° |
| 2026-05-06 22:07 | 28.59821 | -81.28417 | 3009 ft | 193 kts | 179° |
| 2026-05-06 22:07 | 28.58486 | -81.28402 | 2767 ft | 192 kts | 180° |
| 2026-05-06 22:08 | 28.57150 | -81.28389 | 2532 ft | 192 kts | 180° |
| 2026-05-06 22:08 | 28.55817 | -81.28376 | 2277 ft | 190 kts | 179° |
| 2026-05-06 22:08 | 28.54511 | -81.28363 | 2033 ft | 185 kts | 179° |
| 2026-05-06 22:08 | 28.53256 | -81.28348 | 1791 ft | 175 kts | 180° |
| 2026-05-06 22:09 | 28.52063 | -81.28338 | 1594 ft | 167 kts | 179° |
| 2026-05-06 22:09 | 28.50929 | -81.28326 | 1375 ft | 160 kts | 179° |
| 2026-05-06 22:09 | 28.49861 | -81.28315 | 1165 ft | 148 kts | 180° |
| 2026-05-06 22:09 | 28.48872 | -81.28304 | 1008 ft | 145 kts | 180° |
| 2026-05-06 22:10 | 28.47853 | -81.28294 | 811 ft | 145 kts | 179° |
| 2026-05-06 22:10 | 28.46868 | -81.28289 | 615 ft | 140 kts | 179° |
| 2026-05-06 22:10 | 28.45882 | -81.28270 | 435 ft | 143 kts | 179° |
| 2026-05-06 22:10 | 28.44890 | -81.28266 | 270 ft | 141 kts | 179° |
| 2026-05-06 22:11 | 28.43931 | -81.28255 | 112 ft | 131 kts | 179° |
| 2026-05-06 22:11 | 28.43130 | -81.28246 | 99 ft | 94 kts | 179° |
| 2026-05-06 22:11 | 28.42663 | -81.28242 | 104 ft | 28 kts | 182° |
| 2026-05-06 22:11 | 28.42532 | -81.28324 | 107 ft | 22 kts | 242° |
| 2026-05-06 22:12 | 28.42483 | -81.28484 | 104 ft | 21 kts | 251° |
| 2026-05-06 22:12 | 28.42435 | -81.28642 | 105 ft | 21 kts | 250° |
| 2026-05-06 22:12 | 28.42386 | -81.28793 | 106 ft | 20 kts | 250° |
| 2026-05-06 22:12 | 28.42343 | -81.28938 | 105 ft | 19 kts | 251° |
| 2026-05-06 22:13 | 28.42301 | -81.29078 | 107 ft | 19 kts | 255° |
| 2026-05-06 22:13 | 28.42286 | -81.29222 | 106 ft | 18 kts | 270° |
| 2026-05-06 22:13 | 28.42285 | -81.29374 | 103 ft | 20 kts | 269° |
| 2026-05-06 22:13 | 28.42283 | -81.29551 | 98 ft | 23 kts | 269° |
| 2026-05-06 22:14 | 28.42281 | -81.29721 | 99 ft | 20 kts | 269° |
| 2026-05-06 22:14 | 28.42320 | -81.29791 | 100 ft | 11 kts | 353° |
| 2026-05-06 22:14 | 28.42424 | -81.29793 | 102 ft | 21 kts | 360° |
| 2026-05-06 22:14 | 28.42595 | -81.29794 | 102 ft | 26 kts | 359° |
| 2026-05-06 22:15 | 28.42771 | -81.29797 | 102 ft | 25 kts | 359° |
| 2026-05-06 22:15 | 28.42936 | -81.29799 | 102 ft | 23 kts | 359° |
| 2026-05-06 22:15 | 28.43093 | -81.29800 | 103 ft | 22 kts | 359° |
| 2026-05-06 22:15 | 28.43245 | -81.29802 | 102 ft | 22 kts | 359° |
| 2026-05-06 22:16 | 28.43394 | -81.29805 | 102 ft | 21 kts | 359° |
| 2026-05-06 22:16 | 28.43502 | -81.29805 | 103 ft | 11 kts | 360° |
| 2026-05-06 22:16 | 28.43556 | -81.29865 | 101 ft | 15 kts | 302° |
| 2026-05-06 22:16 | 28.43656 | -81.29889 | 101 ft | 13 kts | 357° |
| 2026-05-06 22:17 | 28.43743 | -81.29906 | 101 ft | 13 kts | 334° |
| 2026-05-06 22:17 | 28.43806 | -81.29971 | 101 ft | 12 kts | 301° |
| 2026-05-06 22:17 | 28.43826 | -81.30065 | 101 ft | 12 kts | 272° |
| 2026-05-06 22:17 | 28.43798 | -81.30153 | 100 ft | 13 kts | 231° |
| 2026-05-06 22:18 | 28.43736 | -81.30242 | 100 ft | 16 kts | 232° |
| 2026-05-06 22:18 | 28.43669 | -81.30339 | 100 ft | 15 kts | 231° |
| 2026-05-06 22:18 | 28.43610 | -81.30417 | 100 ft | 13 kts | 220° |
| 2026-05-06 22:18 | 28.43559 | -81.30448 | 100 ft | 5 kts | 191° |
| 2026-05-06 22:19 | 28.43519 | -81.30456 | 100 ft | 8 kts | 182° |
| 2026-05-06 22:19 | 28.43502 | -81.30412 | 100 ft | 6 kts | 75° |
| 2026-05-06 22:19 | 28.43508 | -81.30380 | 100 ft | 3 kts | 75° |
| 2026-05-06 22:19 | 28.43511 | -81.30370 | 99 ft | 0 kts | 75° |